sensor_id;sensor_type;location;lat;lon;timestamp;temperature;humidity
36552;DHT22;22559;54.176;12.102;2022-07-19T00:02:07;18.60;99.90
36552;DHT22;22559;54.176;12.102;2022-07-19T00:04:34;18.60;99.90
36552;DHT22;22559;54.176;12.102;2022-07-19T00:07:00;18.60;99.90
36552;DHT22;22559;54.176;12.102;2022-07-19T00:09:26;18.60;99.90
36552;DHT22;22559;54.176;12.102;2022-07-19T00:11:52;18.50;99.90
36552;DHT22;22559;54.176;12.102;2022-07-19T00:14:18;18.40;99.90
36552;DHT22;22559;54.176;12.102;2022-07-19T00:16:44;18.20;99.90
36552;DHT22;22559;54.176;12.102;2022-07-19T00:19:09;18.00;99.90
36552;DHT22;22559;54.176;12.102;2022-07-19T00:21:35;18.00;99.90
36552;DHT22;22559;54.176;12.102;2022-07-19T00:24:01;17.90;99.90
36552;DHT22;22559;54.176;12.102;2022-07-19T00:26:27;17.80;99.90
36552;DHT22;22559;54.176;12.102;2022-07-19T00:28:53;17.90;99.90
36552;DHT22;22559;54.176;12.102;2022-07-19T00:31:24;17.80;99.90
36552;DHT22;22559;54.176;12.102;2022-07-19T00:33:51;17.70;99.90
36552;DHT22;22559;54.176;12.102;2022-07-19T00:36:17;17.70;99.90
36552;DHT22;22559;54.176;12.102;2022-07-19T00:38:43;17.70;99.90
36552;DHT22;22559;54.176;12.102;2022-07-19T00:41:08;17.50;99.90
36552;DHT22;22559;54.176;12.102;2022-07-19T00:43:34;17.40;99.90
36552;DHT22;22559;54.176;12.102;2022-07-19T00:46:00;17.30;99.90
36552;DHT22;22559;54.176;12.102;2022-07-19T00:48:26;17.40;99.90
36552;DHT22;22559;54.176;12.102;2022-07-19T00:50:51;17.30;99.90
36552;DHT22;22559;54.176;12.102;2022-07-19T00:53:18;17.30;99.90
36552;DHT22;22559;54.176;12.102;2022-07-19T00:55:45;17.30;99.90
36552;DHT22;22559;54.176;12.102;2022-07-19T00:58:12;17.20;99.90
36552;DHT22;22559;54.176;12.102;2022-07-19T01:00:41;17.10;99.90
36552;DHT22;22559;54.176;12.102;2022-07-19T01:03:07;17.30;99.90
36552;DHT22;22559;54.176;12.102;2022-07-19T01:05:37;17.50;99.90
36552;DHT22;22559;54.176;12.102;2022-07-19T01:08:03;17.60;99.90
36552;DHT22;22559;54.176;12.102;2022-07-19T01:10:31;17.60;99.90
36552;DHT22;22559;54.176;12.102;2022-07-19T01:12:56;17.60;99.90
36552;DHT22;22559;54.176;12.102;2022-07-19T01:15:25;17.70;99.90
36552;DHT22;22559;54.176;12.102;2022-07-19T01:17:52;17.70;99.90
36552;DHT22;22559;54.176;12.102;2022-07-19T01:20:20;17.60;99.90
36552;DHT22;22559;54.176;12.102;2022-07-19T01:22:46;17.70;99.90
36552;DHT22;22559;54.176;12.102;2022-07-19T01:25:12;17.70;99.90
36552;DHT22;22559;54.176;12.102;2022-07-19T01:27:39;17.60;99.90
36552;DHT22;22559;54.176;12.102;2022-07-19T01:30:13;17.60;99.90
36552;DHT22;22559;54.176;12.102;2022-07-19T01:32:40;17.70;99.90
36552;DHT22;22559;54.176;12.102;2022-07-19T01:35:06;17.70;99.90
36552;DHT22;22559;54.176;12.102;2022-07-19T01:37:33;17.70;99.90
36552;DHT22;22559;54.176;12.102;2022-07-19T01:39:59;17.70;99.90
36552;DHT22;22559;54.176;12.102;2022-07-19T01:42:25;17.70;99.90
36552;DHT22;22559;54.176;12.102;2022-07-19T01:44:50;17.70;99.90
36552;DHT22;22559;54.176;12.102;2022-07-19T01:47:16;17.70;99.90
36552;DHT22;22559;54.176;12.102;2022-07-19T01:49:42;17.60;99.90
36552;DHT22;22559;54.176;12.102;2022-07-19T01:52:07;17.60;99.90
36552;DHT22;22559;54.176;12.102;2022-07-19T01:54:33;17.50;99.90
36552;DHT22;22559;54.176;12.102;2022-07-19T01:56:59;17.50;99.90
36552;DHT22;22559;54.176;12.102;2022-07-19T01:59:24;17.50;99.90
36552;DHT22;22559;54.176;12.102;2022-07-19T02:01:50;17.50;99.90
36552;DHT22;22559;54.176;12.102;2022-07-19T02:04:16;17.50;99.90
36552;DHT22;22559;54.176;12.102;2022-07-19T02:06:41;17.50;99.90
36552;DHT22;22559;54.176;12.102;2022-07-19T02:09:07;17.50;99.90
36552;DHT22;22559;54.176;12.102;2022-07-19T02:11:32;17.50;99.90
36552;DHT22;22559;54.176;12.102;2022-07-19T02:14:02;17.50;99.90
36552;DHT22;22559;54.176;12.102;2022-07-19T02:16:27;17.50;99.90
36552;DHT22;22559;54.176;12.102;2022-07-19T02:18:53;17.50;99.90
36552;DHT22;22559;54.176;12.102;2022-07-19T02:21:19;17.40;99.90
36552;DHT22;22559;54.176;12.102;2022-07-19T02:23:44;17.40;99.90
36552;DHT22;22559;54.176;12.102;2022-07-19T02:26:10;17.40;99.90
36552;DHT22;22559;54.176;12.102;2022-07-19T02:28:36;17.40;99.90
36552;DHT22;22559;54.176;12.102;2022-07-19T02:31:01;17.40;99.90
36552;DHT22;22559;54.176;12.102;2022-07-19T02:33:27;17.40;99.90
36552;DHT22;22559;54.176;12.102;2022-07-19T02:35:53;17.30;99.90
36552;DHT22;22559;54.176;12.102;2022-07-19T02:38:18;17.30;99.90
36552;DHT22;22559;54.176;12.102;2022-07-19T02:40:44;17.40;99.90
36552;DHT22;22559;54.176;12.102;2022-07-19T02:43:10;17.40;99.90
36552;DHT22;22559;54.176;12.102;2022-07-19T02:45:35;17.50;99.90
36552;DHT22;22559;54.176;12.102;2022-07-19T02:48:01;17.50;99.90
36552;DHT22;22559;54.176;12.102;2022-07-19T02:50:30;17.50;99.90
36552;DHT22;22559;54.176;12.102;2022-07-19T02:52:56;17.40;99.90
36552;DHT22;22559;54.176;12.102;2022-07-19T02:55:22;17.40;99.90
36552;DHT22;22559;54.176;12.102;2022-07-19T02:57:47;17.30;99.90
36552;DHT22;22559;54.176;12.102;2022-07-19T03:00:13;17.20;99.90
36552;DHT22;22559;54.176;12.102;2022-07-19T03:02:39;17.20;99.90
36552;DHT22;22559;54.176;12.102;2022-07-19T03:05:06;17.20;99.90
36552;DHT22;22559;54.176;12.102;2022-07-19T03:07:31;17.30;99.90
36552;DHT22;22559;54.176;12.102;2022-07-19T03:09:57;17.30;99.90
36552;DHT22;22559;54.176;12.102;2022-07-19T03:12:23;17.30;99.90
36552;DHT22;22559;54.176;12.102;2022-07-19T03:14:48;17.30;99.90
36552;DHT22;22559;54.176;12.102;2022-07-19T03:17:14;17.20;99.90
36552;DHT22;22559;54.176;12.102;2022-07-19T03:19:40;17.20;99.90
36552;DHT22;22559;54.176;12.102;2022-07-19T03:22:05;17.20;99.90
36552;DHT22;22559;54.176;12.102;2022-07-19T03:24:31;17.20;99.90
36552;DHT22;22559;54.176;12.102;2022-07-19T03:26:57;17.10;99.90
36552;DHT22;22559;54.176;12.102;2022-07-19T03:29:23;17.10;99.90
36552;DHT22;22559;54.176;12.102;2022-07-19T03:31:48;17.10;99.90
36552;DHT22;22559;54.176;12.102;2022-07-19T03:34:14;17.10;99.90
36552;DHT22;22559;54.176;12.102;2022-07-19T03:36:39;17.10;99.90
36552;DHT22;22559;54.176;12.102;2022-07-19T03:39:05;17.20;99.90
36552;DHT22;22559;54.176;12.102;2022-07-19T03:41:31;17.20;99.90
36552;DHT22;22559;54.176;12.102;2022-07-19T03:43:56;17.20;99.90
36552;DHT22;22559;54.176;12.102;2022-07-19T03:46:22;17.10;99.90
36552;DHT22;22559;54.176;12.102;2022-07-19T03:48:48;17.00;99.90
36552;DHT22;22559;54.176;12.102;2022-07-19T03:51:14;17.00;99.90
36552;DHT22;22559;54.176;12.102;2022-07-19T03:53:40;16.90;99.90
36552;DHT22;22559;54.176;12.102;2022-07-19T03:56:06;16.90;99.90
36552;DHT22;22559;54.176;12.102;2022-07-19T03:58:31;16.90;99.90
36552;DHT22;22559;54.176;12.102;2022-07-19T04:00:57;16.90;99.90
36552;DHT22;22559;54.176;12.102;2022-07-19T04:03:23;16.90;99.90
36552;DHT22;22559;54.176;12.102;2022-07-19T04:05:49;16.90;99.90
36552;DHT22;22559;54.176;12.102;2022-07-19T04:08:14;16.90;99.90
36552;DHT22;22559;54.176;12.102;2022-07-19T04:10:40;16.90;99.90
36552;DHT22;22559;54.176;12.102;2022-07-19T04:13:07;16.80;99.90
36552;DHT22;22559;54.176;12.102;2022-07-19T04:15:32;16.80;99.90
36552;DHT22;22559;54.176;12.102;2022-07-19T04:17:58;16.80;99.90
36552;DHT22;22559;54.176;12.102;2022-07-19T04:20:24;16.80;99.90
36552;DHT22;22559;54.176;12.102;2022-07-19T04:22:49;16.80;99.90
36552;DHT22;22559;54.176;12.102;2022-07-19T04:25:15;16.70;99.90
36552;DHT22;22559;54.176;12.102;2022-07-19T04:27:41;16.70;99.90
36552;DHT22;22559;54.176;12.102;2022-07-19T04:30:07;16.70;99.90
36552;DHT22;22559;54.176;12.102;2022-07-19T04:32:33;16.70;99.90
36552;DHT22;22559;54.176;12.102;2022-07-19T04:34:59;16.70;99.90
36552;DHT22;22559;54.176;12.102;2022-07-19T04:37:25;16.70;99.90
36552;DHT22;22559;54.176;12.102;2022-07-19T04:39:51;16.70;99.90
36552;DHT22;22559;54.176;12.102;2022-07-19T04:42:17;16.60;99.90
36552;DHT22;22559;54.176;12.102;2022-07-19T04:44:43;16.70;99.90
36552;DHT22;22559;54.176;12.102;2022-07-19T04:47:09;16.70;99.90
36552;DHT22;22559;54.176;12.102;2022-07-19T04:49:34;16.70;99.90
36552;DHT22;22559;54.176;12.102;2022-07-19T04:52:00;16.70;99.90
36552;DHT22;22559;54.176;12.102;2022-07-19T04:54:26;16.70;99.90
36552;DHT22;22559;54.176;12.102;2022-07-19T04:56:51;16.80;99.90
36552;DHT22;22559;54.176;12.102;2022-07-19T04:59:17;16.80;99.90
36552;DHT22;22559;54.176;12.102;2022-07-19T05:01:43;16.80;99.90
36552;DHT22;22559;54.176;12.102;2022-07-19T05:04:09;17.00;99.90
36552;DHT22;22559;54.176;12.102;2022-07-19T05:06:35;17.20;99.90
36552;DHT22;22559;54.176;12.102;2022-07-19T05:09:00;17.50;99.90
36552;DHT22;22559;54.176;12.102;2022-07-19T05:11:26;17.60;99.90
36552;DHT22;22559;54.176;12.102;2022-07-19T05:13:52;17.70;99.90
36552;DHT22;22559;54.176;12.102;2022-07-19T05:16:18;17.80;99.90
36552;DHT22;22559;54.176;12.102;2022-07-19T05:18:43;17.80;99.90
36552;DHT22;22559;54.176;12.102;2022-07-19T05:21:09;17.90;99.90
36552;DHT22;22559;54.176;12.102;2022-07-19T05:23:34;17.90;99.90
36552;DHT22;22559;54.176;12.102;2022-07-19T05:26:00;17.90;99.90
36552;DHT22;22559;54.176;12.102;2022-07-19T05:28:26;17.90;99.90
36552;DHT22;22559;54.176;12.102;2022-07-19T05:30:51;17.90;99.90
36552;DHT22;22559;54.176;12.102;2022-07-19T05:33:17;17.90;99.90
36552;DHT22;22559;54.176;12.102;2022-07-19T05:35:43;17.90;99.90
36552;DHT22;22559;54.176;12.102;2022-07-19T05:38:08;18.00;99.90
36552;DHT22;22559;54.176;12.102;2022-07-19T05:40:34;18.10;99.90
36552;DHT22;22559;54.176;12.102;2022-07-19T05:43:00;18.10;99.90
36552;DHT22;22559;54.176;12.102;2022-07-19T05:45:26;18.20;99.90
36552;DHT22;22559;54.176;12.102;2022-07-19T05:47:52;18.20;99.90
36552;DHT22;22559;54.176;12.102;2022-07-19T05:50:18;18.30;99.90
36552;DHT22;22559;54.176;12.102;2022-07-19T05:52:43;18.30;99.90
36552;DHT22;22559;54.176;12.102;2022-07-19T05:55:09;18.40;99.90
36552;DHT22;22559;54.176;12.102;2022-07-19T05:57:35;18.50;99.90
36552;DHT22;22559;54.176;12.102;2022-07-19T06:00:00;18.60;99.90
36552;DHT22;22559;54.176;12.102;2022-07-19T06:02:26;18.70;99.90
36552;DHT22;22559;54.176;12.102;2022-07-19T06:04:52;18.80;99.90
36552;DHT22;22559;54.176;12.102;2022-07-19T06:07:17;18.90;99.90
36552;DHT22;22559;54.176;12.102;2022-07-19T06:09:43;18.90;99.90
36552;DHT22;22559;54.176;12.102;2022-07-19T06:12:08;19.00;99.90
36552;DHT22;22559;54.176;12.102;2022-07-19T06:14:34;19.10;99.90
36552;DHT22;22559;54.176;12.102;2022-07-19T06:17:00;19.20;99.90
36552;DHT22;22559;54.176;12.102;2022-07-19T06:19:25;19.30;99.90
36552;DHT22;22559;54.176;12.102;2022-07-19T06:21:52;19.30;99.90
36552;DHT22;22559;54.176;12.102;2022-07-19T06:24:18;19.40;99.90
36552;DHT22;22559;54.176;12.102;2022-07-19T06:26:44;19.50;99.90
36552;DHT22;22559;54.176;12.102;2022-07-19T06:29:10;19.60;99.90
36552;DHT22;22559;54.176;12.102;2022-07-19T06:31:35;19.70;99.90
36552;DHT22;22559;54.176;12.102;2022-07-19T06:34:01;19.80;99.90
36552;DHT22;22559;54.176;12.102;2022-07-19T06:36:26;19.90;99.90
36552;DHT22;22559;54.176;12.102;2022-07-19T06:38:52;20.10;99.90
36552;DHT22;22559;54.176;12.102;2022-07-19T06:41:18;20.20;99.90
36552;DHT22;22559;54.176;12.102;2022-07-19T06:43:44;20.60;99.90
36552;DHT22;22559;54.176;12.102;2022-07-19T06:46:10;20.90;99.90
36552;DHT22;22559;54.176;12.102;2022-07-19T06:48:36;21.30;99.90
36552;DHT22;22559;54.176;12.102;2022-07-19T06:51:02;21.70;99.90
36552;DHT22;22559;54.176;12.102;2022-07-19T06:53:28;22.10;99.90
36552;DHT22;22559;54.176;12.102;2022-07-19T06:55:53;22.60;99.90
36552;DHT22;22559;54.176;12.102;2022-07-19T06:58:19;23.10;99.90
36552;DHT22;22559;54.176;12.102;2022-07-19T07:00:44;23.50;99.90
36552;DHT22;22559;54.176;12.102;2022-07-19T07:03:11;23.90;99.90
36552;DHT22;22559;54.176;12.102;2022-07-19T07:05:37;24.30;99.90
36552;DHT22;22559;54.176;12.102;2022-07-19T07:08:03;24.60;99.90
36552;DHT22;22559;54.176;12.102;2022-07-19T07:10:29;24.90;99.90
36552;DHT22;22559;54.176;12.102;2022-07-19T07:12:54;25.10;99.90
36552;DHT22;22559;54.176;12.102;2022-07-19T07:15:20;25.30;99.90
36552;DHT22;22559;54.176;12.102;2022-07-19T07:17:46;25.50;99.90
36552;DHT22;22559;54.176;12.102;2022-07-19T07:20:11;25.60;99.90
36552;DHT22;22559;54.176;12.102;2022-07-19T07:22:38;25.80;99.90
36552;DHT22;22559;54.176;12.102;2022-07-19T07:25:04;26.10;99.90
36552;DHT22;22559;54.176;12.102;2022-07-19T07:27:30;26.20;99.90
36552;DHT22;22559;54.176;12.102;2022-07-19T07:29:56;26.30;99.90
36552;DHT22;22559;54.176;12.102;2022-07-19T07:32:22;26.40;99.90
36552;DHT22;22559;54.176;12.102;2022-07-19T07:34:48;26.60;99.90
36552;DHT22;22559;54.176;12.102;2022-07-19T07:37:13;26.60;99.90
36552;DHT22;22559;54.176;12.102;2022-07-19T07:39:39;26.80;99.90
36552;DHT22;22559;54.176;12.102;2022-07-19T07:42:05;26.90;99.90
36552;DHT22;22559;54.176;12.102;2022-07-19T07:44:31;27.20;99.90
36552;DHT22;22559;54.176;12.102;2022-07-19T07:46:57;27.40;99.90
36552;DHT22;22559;54.176;12.102;2022-07-19T07:49:23;27.70;99.90
36552;DHT22;22559;54.176;12.102;2022-07-19T07:51:49;28.00;99.90
36552;DHT22;22559;54.176;12.102;2022-07-19T07:54:14;28.10;99.90
36552;DHT22;22559;54.176;12.102;2022-07-19T07:56:40;28.20;99.90
36552;DHT22;22559;54.176;12.102;2022-07-19T07:59:06;28.30;99.90
36552;DHT22;22559;54.176;12.102;2022-07-19T08:01:31;28.30;99.90
36552;DHT22;22559;54.176;12.102;2022-07-19T08:03:57;28.10;99.90
36552;DHT22;22559;54.176;12.102;2022-07-19T08:06:23;27.50;99.90
36552;DHT22;22559;54.176;12.102;2022-07-19T08:08:49;27.50;99.90
36552;DHT22;22559;54.176;12.102;2022-07-19T08:11:14;27.80;99.90
36552;DHT22;22559;54.176;12.102;2022-07-19T08:13:40;28.20;99.90
36552;DHT22;22559;54.176;12.102;2022-07-19T08:16:06;28.30;99.90
36552;DHT22;22559;54.176;12.102;2022-07-19T08:18:32;28.50;99.90
36552;DHT22;22559;54.176;12.102;2022-07-19T08:20:58;28.40;99.90
36552;DHT22;22559;54.176;12.102;2022-07-19T08:23:24;28.90;99.90
36552;DHT22;22559;54.176;12.102;2022-07-19T08:25:49;29.20;99.90
36552;DHT22;22559;54.176;12.102;2022-07-19T08:28:15;29.40;99.90
36552;DHT22;22559;54.176;12.102;2022-07-19T08:30:40;29.40;99.90
36552;DHT22;22559;54.176;12.102;2022-07-19T08:33:06;29.20;99.90
36552;DHT22;22559;54.176;12.102;2022-07-19T08:35:34;28.70;99.90
36552;DHT22;22559;54.176;12.102;2022-07-19T08:38:00;28.60;99.90
36552;DHT22;22559;54.176;12.102;2022-07-19T08:40:26;28.50;99.90
36552;DHT22;22559;54.176;12.102;2022-07-19T08:42:53;28.70;99.90
36552;DHT22;22559;54.176;12.102;2022-07-19T08:45:22;29.10;99.90
36552;DHT22;22559;54.176;12.102;2022-07-19T08:47:48;29.20;99.90
36552;DHT22;22559;54.176;12.102;2022-07-19T08:50:15;29.00;99.90
36552;DHT22;22559;54.176;12.102;2022-07-19T08:52:41;29.20;99.90
36552;DHT22;22559;54.176;12.102;2022-07-19T08:55:08;29.00;99.90
36552;DHT22;22559;54.176;12.102;2022-07-19T08:57:34;29.00;99.90
36552;DHT22;22559;54.176;12.102;2022-07-19T09:00:18;28.20;99.90
36552;DHT22;22559;54.176;12.102;2022-07-19T09:02:52;28.30;99.90
36552;DHT22;22559;54.176;12.102;2022-07-19T09:05:18;28.80;99.90
36552;DHT22;22559;54.176;12.102;2022-07-19T09:10:31;28.50;99.90
36552;DHT22;22559;54.176;12.102;2022-07-19T09:13:06;28.50;99.90
36552;DHT22;22559;54.176;12.102;2022-07-19T09:15:50;28.60;99.90
36552;DHT22;22559;54.176;12.102;2022-07-19T09:20:43;28.50;99.90
36552;DHT22;22559;54.176;12.102;2022-07-19T09:23:09;28.70;99.90
36552;DHT22;22559;54.176;12.102;2022-07-19T09:25:40;28.90;99.90
36552;DHT22;22559;54.176;12.102;2022-07-19T09:28:07;29.40;99.90
36552;DHT22;22559;54.176;12.102;2022-07-19T09:30:41;29.30;99.90
36552;DHT22;22559;54.176;12.102;2022-07-19T09:33:14;29.80;99.90
36552;DHT22;22559;54.176;12.102;2022-07-19T09:35:47;29.70;99.90
36552;DHT22;22559;54.176;12.102;2022-07-19T09:38:29;29.70;99.90
36552;DHT22;22559;54.176;12.102;2022-07-19T09:41:13;29.40;99.90
36552;DHT22;22559;54.176;12.102;2022-07-19T09:43:55;29.40;99.90
36552;DHT22;22559;54.176;12.102;2022-07-19T09:48:52;29.10;99.90
36552;DHT22;22559;54.176;12.102;2022-07-19T09:51:19;29.50;99.90
36552;DHT22;22559;54.176;12.102;2022-07-19T09:53:45;29.50;99.90
36552;DHT22;22559;54.176;12.102;2022-07-19T09:56:11;29.60;99.90
36552;DHT22;22559;54.176;12.102;2022-07-19T09:58:38;29.70;99.90
36552;DHT22;22559;54.176;12.102;2022-07-19T10:01:04;29.40;99.90
36552;DHT22;22559;54.176;12.102;2022-07-19T10:03:30;29.30;99.90
36552;DHT22;22559;54.176;12.102;2022-07-19T10:05:56;29.70;99.90
36552;DHT22;22559;54.176;12.102;2022-07-19T10:08:22;29.60;99.90
36552;DHT22;22559;54.176;12.102;2022-07-19T10:10:48;29.40;99.90
36552;DHT22;22559;54.176;12.102;2022-07-19T10:13:14;29.50;99.90
36552;DHT22;22559;54.176;12.102;2022-07-19T10:15:45;29.60;99.90
36552;DHT22;22559;54.176;12.102;2022-07-19T10:18:16;29.20;99.90
36552;DHT22;22559;54.176;12.102;2022-07-19T10:20:46;29.40;99.90
36552;DHT22;22559;54.176;12.102;2022-07-19T10:23:15;29.60;99.90
36552;DHT22;22559;54.176;12.102;2022-07-19T10:25:43;29.60;99.90
36552;DHT22;22559;54.176;12.102;2022-07-19T10:30:55;29.50;99.90
36552;DHT22;22559;54.176;12.102;2022-07-19T10:33:34;29.80;99.90
36552;DHT22;22559;54.176;12.102;2022-07-19T10:36:33;29.00;99.90
36552;DHT22;22559;54.176;12.102;2022-07-19T10:42:09;30.00;99.90
36552;DHT22;22559;54.176;12.102;2022-07-19T10:50:09;29.10;99.90
36552;DHT22;22559;54.176;12.102;2022-07-19T10:52:37;29.40;99.90
36552;DHT22;22559;54.176;12.102;2022-07-19T10:55:28;29.80;99.90
36552;DHT22;22559;54.176;12.102;2022-07-19T11:00:49;29.90;99.90
36552;DHT22;22559;54.176;12.102;2022-07-19T11:11:11;29.70;99.90
36552;DHT22;22559;54.176;12.102;2022-07-19T11:13:38;29.40;99.90
36552;DHT22;22559;54.176;12.102;2022-07-19T11:16:05;29.40;99.90
36552;DHT22;22559;54.176;12.102;2022-07-19T11:18:32;29.50;99.90
36552;DHT22;22559;54.176;12.102;2022-07-19T11:20:59;29.40;99.90
36552;DHT22;22559;54.176;12.102;2022-07-19T11:23:32;29.10;99.90
36552;DHT22;22559;54.176;12.102;2022-07-19T11:26:19;29.80;99.90
36552;DHT22;22559;54.176;12.102;2022-07-19T11:28:47;30.30;99.90
36552;DHT22;22559;54.176;12.102;2022-07-19T11:31:24;30.80;99.90
36552;DHT22;22559;54.176;12.102;2022-07-19T11:33:54;30.90;99.90
36552;DHT22;22559;54.176;12.102;2022-07-19T11:36:22;30.40;99.90
36552;DHT22;22559;54.176;12.102;2022-07-19T11:38:58;30.30;99.90
36552;DHT22;22559;54.176;12.102;2022-07-19T11:41:29;30.70;99.90
36552;DHT22;22559;54.176;12.102;2022-07-19T11:43:57;31.50;99.90
36552;DHT22;22559;54.176;12.102;2022-07-19T11:46:25;31.70;99.90
36552;DHT22;22559;54.176;12.102;2022-07-19T11:48:59;31.10;99.90
36552;DHT22;22559;54.176;12.102;2022-07-19T11:51:25;31.80;99.90
36552;DHT22;22559;54.176;12.102;2022-07-19T11:53:53;32.00;99.90
36552;DHT22;22559;54.176;12.102;2022-07-19T11:56:21;31.60;99.90
36552;DHT22;22559;54.176;12.102;2022-07-19T11:58:48;31.20;99.90
36552;DHT22;22559;54.176;12.102;2022-07-19T12:01:32;30.70;99.90
36552;DHT22;22559;54.176;12.102;2022-07-19T12:04:05;31.00;99.90
36552;DHT22;22559;54.176;12.102;2022-07-19T12:06:38;30.60;99.90
36552;DHT22;22559;54.176;12.102;2022-07-19T12:09:06;30.30;99.90
36552;DHT22;22559;54.176;12.102;2022-07-19T12:11:39;30.30;99.90
36552;DHT22;22559;54.176;12.102;2022-07-19T12:16:44;30.80;99.90
36552;DHT22;22559;54.176;12.102;2022-07-19T12:19:11;30.90;99.90
36552;DHT22;22559;54.176;12.102;2022-07-19T12:21:38;31.40;99.90
36552;DHT22;22559;54.176;12.102;2022-07-19T12:24:18;31.30;99.90
36552;DHT22;22559;54.176;12.102;2022-07-19T12:27:05;31.50;99.90
36552;DHT22;22559;54.176;12.102;2022-07-19T12:29:45;31.90;99.90
36552;DHT22;22559;54.176;12.102;2022-07-19T12:32:25;31.30;99.90
36552;DHT22;22559;54.176;12.102;2022-07-19T12:34:55;30.90;99.90
36552;DHT22;22559;54.176;12.102;2022-07-19T12:42:25;29.60;99.90
36552;DHT22;22559;54.176;12.102;2022-07-19T12:44:51;29.90;99.90
36552;DHT22;22559;54.176;12.102;2022-07-19T12:47:16;30.00;99.90
36552;DHT22;22559;54.176;12.102;2022-07-19T12:49:48;29.30;99.90
36552;DHT22;22559;54.176;12.102;2022-07-19T12:52:14;29.70;99.90
36552;DHT22;22559;54.176;12.102;2022-07-19T12:54:40;30.20;99.90
36552;DHT22;22559;54.176;12.102;2022-07-19T12:57:06;30.00;99.90
36552;DHT22;22559;54.176;12.102;2022-07-19T12:59:32;30.00;99.90
36552;DHT22;22559;54.176;12.102;2022-07-19T13:02:13;30.80;99.90
36552;DHT22;22559;54.176;12.102;2022-07-19T13:04:41;30.80;99.90
36552;DHT22;22559;54.176;12.102;2022-07-19T13:07:09;31.10;99.90
36552;DHT22;22559;54.176;12.102;2022-07-19T13:09:36;31.50;99.90
36552;DHT22;22559;54.176;12.102;2022-07-19T13:12:04;31.50;99.90
36552;DHT22;22559;54.176;12.102;2022-07-19T13:14:31;31.30;99.90
36552;DHT22;22559;54.176;12.102;2022-07-19T13:16:58;31.60;99.90
36552;DHT22;22559;54.176;12.102;2022-07-19T13:19:24;31.70;99.90
36552;DHT22;22559;54.176;12.102;2022-07-19T13:21:52;31.30;99.90
36552;DHT22;22559;54.176;12.102;2022-07-19T13:24:18;31.00;99.90
36552;DHT22;22559;54.176;12.102;2022-07-19T13:26:44;30.50;99.90
36552;DHT22;22559;54.176;12.102;2022-07-19T13:29:09;30.70;99.90
36552;DHT22;22559;54.176;12.102;2022-07-19T13:31:35;30.80;99.90
36552;DHT22;22559;54.176;12.102;2022-07-19T13:34:01;30.90;99.90
36552;DHT22;22559;54.176;12.102;2022-07-19T13:36:27;30.60;99.90
36552;DHT22;22559;54.176;12.102;2022-07-19T13:38:52;30.60;99.90
36552;DHT22;22559;54.176;12.102;2022-07-19T13:41:18;30.50;99.90
36552;DHT22;22559;54.176;12.102;2022-07-19T13:43:44;30.60;99.90
36552;DHT22;22559;54.176;12.102;2022-07-19T13:46:11;30.60;99.90
36552;DHT22;22559;54.176;12.102;2022-07-19T13:48:40;30.30;99.90
36552;DHT22;22559;54.176;12.102;2022-07-19T13:51:07;30.40;99.90
36552;DHT22;22559;54.176;12.102;2022-07-19T13:53:34;30.40;99.90
36552;DHT22;22559;54.176;12.102;2022-07-19T13:56:00;30.10;99.90
36552;DHT22;22559;54.176;12.102;2022-07-19T13:58:26;30.20;99.90
36552;DHT22;22559;54.176;12.102;2022-07-19T14:00:52;30.40;99.90
36552;DHT22;22559;54.176;12.102;2022-07-19T14:03:18;30.70;99.90
36552;DHT22;22559;54.176;12.102;2022-07-19T14:05:44;31.00;99.90
36552;DHT22;22559;54.176;12.102;2022-07-19T14:08:10;31.20;99.90
36552;DHT22;22559;54.176;12.102;2022-07-19T14:10:37;31.60;99.90
36552;DHT22;22559;54.176;12.102;2022-07-19T14:13:03;31.40;99.90
36552;DHT22;22559;54.176;12.102;2022-07-19T14:15:29;31.00;99.90
36552;DHT22;22559;54.176;12.102;2022-07-19T14:17:55;31.10;99.90
36552;DHT22;22559;54.176;12.102;2022-07-19T14:20:22;31.10;99.90
36552;DHT22;22559;54.176;12.102;2022-07-19T14:22:48;31.10;99.90
36552;DHT22;22559;54.176;12.102;2022-07-19T14:25:13;31.30;99.90
36552;DHT22;22559;54.176;12.102;2022-07-19T14:27:39;31.60;99.90
36552;DHT22;22559;54.176;12.102;2022-07-19T14:30:05;31.70;99.90
36552;DHT22;22559;54.176;12.102;2022-07-19T14:32:30;32.00;99.90
36552;DHT22;22559;54.176;12.102;2022-07-19T14:34:56;32.00;99.90
36552;DHT22;22559;54.176;12.102;2022-07-19T14:37:21;31.80;99.90
36552;DHT22;22559;54.176;12.102;2022-07-19T14:39:47;31.70;99.90
36552;DHT22;22559;54.176;12.102;2022-07-19T14:42:13;31.60;99.90
36552;DHT22;22559;54.176;12.102;2022-07-19T14:44:38;31.90;99.90
36552;DHT22;22559;54.176;12.102;2022-07-19T14:47:04;32.20;99.90
36552;DHT22;22559;54.176;12.102;2022-07-19T14:49:31;32.20;99.90
36552;DHT22;22559;54.176;12.102;2022-07-19T14:51:57;31.60;99.90
36552;DHT22;22559;54.176;12.102;2022-07-19T14:54:22;31.60;99.90
36552;DHT22;22559;54.176;12.102;2022-07-19T14:56:48;31.30;99.90
36552;DHT22;22559;54.176;12.102;2022-07-19T14:59:14;31.50;99.90
36552;DHT22;22559;54.176;12.102;2022-07-19T15:01:39;31.40;98.80
36552;DHT22;22559;54.176;12.102;2022-07-19T15:04:05;30.60;99.80
36552;DHT22;22559;54.176;12.102;2022-07-19T15:06:30;30.70;99.80
36552;DHT22;22559;54.176;12.102;2022-07-19T15:08:56;30.70;99.90
36552;DHT22;22559;54.176;12.102;2022-07-19T15:11:21;30.70;99.90
36552;DHT22;22559;54.176;12.102;2022-07-19T15:13:47;30.80;99.90
36552;DHT22;22559;54.176;12.102;2022-07-19T15:16:13;31.00;99.10
36552;DHT22;22559;54.176;12.102;2022-07-19T15:18:38;31.30;98.00
36552;DHT22;22559;54.176;12.102;2022-07-19T15:21:04;31.30;97.20
36552;DHT22;22559;54.176;12.102;2022-07-19T15:23:33;31.30;97.70
36552;DHT22;22559;54.176;12.102;2022-07-19T15:25:59;31.40;98.00
36552;DHT22;22559;54.176;12.102;2022-07-19T15:28:25;31.30;97.80
36552;DHT22;22559;54.176;12.102;2022-07-19T15:30:51;31.30;98.30
36552;DHT22;22559;54.176;12.102;2022-07-19T15:33:16;31.10;98.70
36552;DHT22;22559;54.176;12.102;2022-07-19T15:35:42;31.10;98.50
36552;DHT22;22559;54.176;12.102;2022-07-19T15:38:08;31.20;98.10
36552;DHT22;22559;54.176;12.102;2022-07-19T15:40:33;31.20;97.70
36552;DHT22;22559;54.176;12.102;2022-07-19T15:42:59;31.10;98.00
36552;DHT22;22559;54.176;12.102;2022-07-19T15:45:24;31.20;98.00
36552;DHT22;22559;54.176;12.102;2022-07-19T15:47:50;31.50;96.70
36552;DHT22;22559;54.176;12.102;2022-07-19T15:50:16;31.40;96.20
36552;DHT22;22559;54.176;12.102;2022-07-19T15:52:42;31.70;95.70